Time;durP1;ratioP1;P1;durP2;ratioP2;P2;SDS_P1;SDS_P2;PMS_P1;PMS_P2;Temp;Humidity;BMP_temperature;BMP_pressure;BME280_temperature;BME280_humidity;BME280_pressure;Samples;Min_cycle;Max_cycle;Signal;HPM_P1;HPM_P2
2023/09/02 00:00:08;;;;;;;3.83;3.13;;;;;;;15.56;100.00;100940.75;5097185;28;20238;-82
2023/09/02 00:02:36;;;;;;;4.30;3.90;;;;;;;15.55;100.00;100933.63;5096937;28;20204;-82
2023/09/02 00:05:02;;;;;;;4.20;3.83;;;;;;;15.53;100.00;100931.06;5096852;28;20214;-83
2023/09/02 00:07:29;;;;;;;4.50;3.83;;;;;;;15.53;100.00;100932.91;5096408;28;20244;-84
2023/09/02 00:09:55;;;;;;;3.90;3.60;;;;;;;15.52;100.00;100937.41;5097654;28;20227;-83
2023/09/02 00:12:22;;;;;;;3.27;3.00;;;;;;;15.51;100.00;100934.84;5098576;28;20223;-82
2023/09/02 00:14:48;;;;;;;3.40;3.10;;;;;;;15.49;100.00;100936.78;5098580;28;20207;-83
2023/09/02 00:17:15;;;;;;;3.97;3.53;;;;;;;15.48;100.00;100946.69;5097153;28;20213;-83
2023/09/02 00:19:43;;;;;;;6.87;3.30;;;;;;;15.49;100.00;100944.84;5096798;28;20227;-82
2023/09/02 00:22:10;;;;;;;3.93;2.67;;;;;;;15.48;100.00;100945.81;5096323;28;20213;-83
2023/09/02 00:24:36;;;;;;;4.57;2.73;;;;;;;15.45;100.00;100949.59;5096930;28;20206;-84
2023/09/02 00:27:03;;;;;;;4.90;2.80;;;;;;;15.42;100.00;100946.28;5097396;28;20209;-83
2023/09/02 00:29:29;;;;;;;3.70;2.80;;;;;;;15.41;100.00;100945.44;5096969;28;20232;-83
2023/09/02 00:31:56;;;;;;;3.50;2.83;;;;;;;15.39;100.00;100941.19;5096642;28;20222;-82
2023/09/02 00:34:22;;;;;;;4.57;2.70;;;;;;;15.36;100.00;100946.78;5099323;28;20256;-83
2023/09/02 00:36:50;;;;;;;6.53;3.13;;;;;;;15.34;100.00;100956.78;5099084;28;20214;-84
2023/09/02 00:39:17;;;;;;;3.13;2.80;;;;;;;15.33;100.00;100957.78;5099538;28;20234;-84
2023/09/02 00:41:48;;;;;;;3.53;3.23;;;;;;;15.33;100.00;100947.88;5098779;28;20881;-83
2023/09/02 00:44:14;;;;;;;3.80;2.80;;;;;;;15.31;100.00;100949.84;5098221;28;20220;-82
2023/09/02 00:46:41;;;;;;;3.50;3.20;;;;;;;15.33;100.00;100955.94;5099929;28;20217;-83
2023/09/02 00:49:08;;;;;;;5.03;3.30;;;;;;;15.33;100.00;100952.41;5097414;28;20230;-83
2023/09/02 00:51:34;;;;;;;3.30;3.00;;;;;;;15.35;100.00;100959.34;5096074;28;20317;-84
2023/09/02 00:54:02;;;;;;;4.43;3.33;;;;;;;15.36;100.00;100954.84;5096664;28;20212;-83
2023/09/02 00:56:31;;;;;;;4.20;3.20;;;;;;;15.38;100.00;100960.97;5096501;28;20658;-82
2023/09/02 00:59:02;;;;;;;3.57;2.80;;;;;;;15.34;100.00;100956.78;5095540;28;20233;-82
2023/09/02 01:01:30;;;;;;;4.23;2.87;;;;;;;15.28;100.00;100956.28;5095564;28;20216;-83
2023/09/02 01:03:57;;;;;;;4.00;3.23;;;;;;;15.24;100.00;100946.75;5094276;28;20237;-84
2023/09/02 01:06:23;;;;;;;3.80;3.20;;;;;;;15.23;100.00;100957.63;5094127;28;20211;-83
2023/09/02 01:08:50;;;;;;;3.50;3.13;;;;;;;15.23;100.00;100954.94;5095340;28;20236;-83
2023/09/02 01:11:18;;;;;;;3.30;2.80;;;;;;;15.25;100.00;100947.63;5094651;28;20694;-84
2023/09/02 01:13:45;;;;;;;4.77;3.30;;;;;;;15.26;100.00;100954.69;5094251;28;20204;-82
2023/09/02 01:16:26;;;;;;;5.03;3.10;;;;;;;15.26;100.00;100960.91;5094591;28;20209;-84
2023/09/02 01:18:55;;;;;;;3.37;3.07;;;;;;;15.26;100.00;100955.56;5094508;28;20258;-84
2023/09/02 01:21:46;;;;;;;3.50;3.20;;;;;;;15.25;100.00;100959.22;5081630;28;20194;-82
2023/09/02 01:24:32;;;;;;;3.10;2.80;;;;;;;15.29;100.00;100962.50;5076076;28;20199;-84
2023/09/02 01:27:13;;;;;;;3.13;2.77;;;;;;;15.29;100.00;100966.06;5074703;28;20190;-84
2023/09/02 01:29:44;;;;;;;3.13;2.83;;;;;;;15.29;100.00;100958.00;5075520;28;20226;-83
2023/09/02 01:32:15;;;;;;;3.17;2.47;;;;;;;15.26;100.00;100968.13;5075646;28;20221;-86
2023/09/02 01:34:47;;;;;;;3.13;2.83;;;;;;;15.20;100.00;100963.25;5073947;28;20203;-83
2023/09/02 01:37:14;;;;;;;3.70;2.70;;;;;;;15.18;100.00;100973.25;5073941;28;20205;-83
2023/09/02 01:39:43;;;;;;;2.90;2.57;;;;;;;15.14;100.00;100972.63;5074926;28;20242;-83
2023/09/02 01:42:11;;;;;;;2.83;2.63;;;;;;;15.10;100.00;100972.97;5080977;28;20189;-84
2023/09/02 01:44:39;;;;;;;3.20;2.80;;;;;;;15.06;100.00;100976.84;5094884;28;20662;-83
2023/09/02 01:47:06;;;;;;;3.00;2.37;;;;;;;15.04;100.00;100977.00;5094228;28;20212;-83
2023/09/02 01:49:33;;;;;;;3.20;2.60;;;;;;;15.03;100.00;100977.97;5094737;28;20222;-83
2023/09/02 01:52:00;;;;;;;4.00;3.03;;;;;;;15.02;100.00;100981.63;5094733;28;20591;-84
2023/09/02 01:54:27;;;;;;;3.33;2.80;;;;;;;15.01;100.00;100974.53;5094565;28;20208;-83
2023/09/02 01:56:57;;;;;;;3.27;2.97;;;;;;;14.99;100.00;100987.22;5094783;28;20220;-83
2023/09/02 01:59:25;;;;;;;3.77;2.70;;;;;;;15.00;100.00;100999.66;5095423;28;20224;-83
2023/09/02 02:01:51;;;;;;;2.83;2.60;;;;;;;15.00;100.00;101001.47;5095430;28;20209;-83
2023/09/02 02:04:25;;;;;;;2.90;2.57;;;;;;;14.97;100.00;100990.97;5095548;28;20204;-83
2023/09/02 02:06:56;;;;;;;3.50;2.70;;;;;;;14.96;100.00;100995.47;5095374;28;20644;-84
2023/09/02 02:09:30;;;;;;;2.73;2.10;;;;;;;14.95;100.00;100996.44;5094345;28;20242;-84
2023/09/02 02:11:58;;;;;;;5.63;2.87;;;;;;;14.92;100.00;101002.03;5094689;28;20217;-84
2023/09/02 02:14:25;;;;;;;3.07;2.50;;;;;;;14.90;100.00;100995.94;5094505;28;20210;-83
2023/09/02 02:16:52;;;;;;;2.43;2.23;;;;;;;14.85;100.00;101006.19;5094117;28;20213;-84
2023/09/02 02:19:19;;;;;;;4.77;2.67;;;;;;;14.82;100.00;101006.41;5093627;28;20247;-83
2023/09/02 02:21:45;;;;;;;2.90;2.63;;;;;;;14.80;100.00;101013.72;5093348;28;20205;-82
2023/09/02 02:24:13;;;;;;;3.00;2.60;;;;;;;14.79;100.00;101014.69;5093245;28;20205;-83
2023/09/02 02:26:39;;;;;;;4.50;2.37;;;;;;;14.78;100.00;101012.97;5093722;28;20209;-82
2023/09/02 02:29:05;;;;;;;2.67;2.47;;;;;;;14.77;100.00;101024.66;5081321;28;20226;-81
2023/09/02 02:31:34;;;;;;;3.57;3.27;;;;;;;14.78;100.00;101021.00;5072962;28;20229;-83
2023/09/02 02:34:00;;;;;;;2.63;2.43;;;;;;;14.78;100.00;101021.88;5091339;28;20219;-83
2023/09/02 02:36:27;;;;;;;4.67;2.73;;;;;;;14.77;100.00;101024.66;5093141;28;20215;-82
2023/09/02 02:38:53;;;;;;;4.20;2.77;;;;;;;14.73;100.00;101024.03;5092875;28;20228;-83
2023/09/02 02:41:20;;;;;;;6.53;3.13;;;;;;;14.70;100.00;101026.94;5093329;28;20205;-83
2023/09/02 02:43:46;;;;;;;2.77;2.40;;;;;;;14.66;100.00;101022.78;5092593;28;20217;-83
2023/09/02 02:46:13;;;;;;;4.47;2.70;;;;;;;14.63;100.00;101017.66;5093854;28;20197;-82
2023/09/02 02:48:40;;;;;;;2.63;2.43;;;;;;;14.61;100.00;101024.94;5093681;28;20585;-82
2023/09/02 02:51:07;;;;;;;3.27;2.77;;;;;;;14.57;100.00;101027.00;5096087;28;20206;-83
2023/09/02 02:53:34;;;;;;;2.90;2.70;;;;;;;14.55;100.00;101034.28;5096238;28;20212;-83
2023/09/02 02:56:02;;;;;;;3.43;2.90;;;;;;;14.54;100.00;101037.94;5096238;28;20202;-83
2023/09/02 02:58:29;;;;;;;3.87;2.70;;;;;;;14.54;100.00;101032.56;5095723;28;20257;-84
2023/09/02 03:01:04;;;;;;;4.53;2.63;;;;;;;14.51;100.00;101046.19;5095565;28;20205;-82
2023/09/02 03:03:30;;;;;;;2.80;2.60;;;;;;;14.50;100.00;101039.16;5096315;28;20188;-84
2023/09/02 03:05:59;;;;;;;3.50;2.70;;;;;;;14.48;100.00;101042.91;5093700;28;20232;-83
2023/09/02 03:08:26;;;;;;;2.80;2.27;;;;;;;14.47;100.00;101050.09;5079971;28;20226;-82
2023/09/02 03:10:56;;;;;;;2.80;2.60;;;;;;;14.47;100.00;101049.25;5095016;28;20277;-83
2023/09/02 03:13:23;;;;;;;3.87;3.00;;;;;;;14.48;100.00;101046.44;5095026;28;20227;-82
2023/09/02 03:15:50;;;;;;;4.10;2.80;;;;;;;14.49;100.00;101048.16;5094140;28;20204;-83
2023/09/02 03:18:17;;;;;;;2.77;2.43;;;;;;;14.50;100.00;101040.97;5093916;28;20197;-84
2023/09/02 03:20:44;;;;;;;3.63;2.77;;;;;;;14.49;100.00;101053.53;5093250;28;20234;-83
2023/09/02 03:23:15;;;;;;;2.73;2.40;;;;;;;14.48;100.00;101041.09;5093368;28;20205;-83
2023/09/02 03:25:41;;;;;;;4.20;2.87;;;;;;;14.49;100.00;101050.84;5093749;28;20283;-83
2023/09/02 03:28:08;;;;;;;2.60;2.10;;;;;;;14.45;100.00;101049.34;5093318;28;20200;-82
2023/09/02 03:30:35;;;;;;;2.63;2.43;;;;;;;14.46;100.00;101048.38;5093889;28;21004;-83
2023/09/02 03:33:02;;;;;;;2.40;2.20;;;;;;;14.45;100.00;101048.50;5094029;28;20564;-82
2023/09/02 03:35:29;;;;;;;3.03;2.47;;;;;;;14.43;100.00;101045.91;5094604;28;20259;-82
2023/09/02 03:37:56;;;;;;;3.53;2.63;;;;;;;14.43;100.00;101037.03;5094591;28;20207;-84
2023/09/02 03:40:24;;;;;;;2.70;2.50;;;;;;;14.40;100.00;101047.94;5094960;28;20228;-83
2023/09/02 03:42:50;;;;;;;2.40;2.20;;;;;;;14.38;100.00;101042.69;5098609;28;20200;-83
2023/09/02 03:45:17;;;;;;;2.40;2.20;;;;;;;14.37;100.00;101042.78;5098536;28;20215;-82
2023/09/02 03:47:45;;;;;;;2.80;2.33;;;;;;;14.34;100.00;101035.81;5097854;28;20208;-83
2023/09/02 03:50:12;;;;;;;2.27;2.13;;;;;;;14.32;100.00;101040.47;5097264;28;20224;-85
2023/09/02 03:52:40;;;;;;;2.43;2.23;;;;;;;14.34;100.00;101040.31;5097477;28;20602;-84
2023/09/02 03:55:07;;;;;;;5.13;2.23;;;;;;;14.34;100.00;101043.84;5097559;28;20254;-82
2023/09/02 03:57:34;;;;;;;2.77;2.20;;;;;;;14.33;100.00;101049.38;5097955;28;20205;-84
2023/09/02 04:00:01;;;;;;;2.80;2.60;;;;;;;14.35;100.00;101053.63;5097674;28;20228;-85
2023/09/02 04:02:27;;;;;;;2.80;2.60;;;;;;;14.34;100.00;101048.38;5098236;28;20203;-84
2023/09/02 04:04:54;;;;;;;2.83;2.60;;;;;;;14.32;100.00;101037.78;5097991;28;20205;-83
2023/09/02 04:07:21;;;;;;;3.67;2.60;;;;;;;14.33;100.00;101044.81;5098339;28;20216;-83
2023/09/02 04:09:47;;;;;;;2.70;2.50;;;;;;;14.31;100.00;101054.84;5098366;28;20223;-83
2023/09/02 04:12:14;;;;;;;2.67;2.47;;;;;;;14.30;100.00;101047.75;5100334;28;20220;-83
2023/09/02 04:14:41;;;;;;;3.23;2.93;;;;;;;14.31;100.00;101053.97;5098543;28;20742;-82
2023/09/02 04:17:08;;;;;;;3.13;2.63;;;;;;;14.29;100.00;101047.88;5099324;28;20216;-83
2023/09/02 04:19:36;;;;;;;4.73;3.10;;;;;;;14.29;100.00;101043.38;5098499;28;20220;-83
2023/09/02 04:22:03;;;;;;;3.53;2.63;;;;;;;14.30;100.00;101042.41;5100308;28;20227;-82
2023/09/02 04:24:31;;;;;;;3.00;2.70;;;;;;;14.29;100.00;101045.19;5100272;28;20202;-83
2023/09/02 04:26:59;;;;;;;3.30;3.00;;;;;;;14.31;100.00;101046.78;5100292;28;20310;-83
2023/09/02 04:29:25;;;;;;;3.07;2.77;;;;;;;14.31;100.00;101054.84;5099994;28;20232;-82
2023/09/02 04:31:53;;;;;;;2.83;2.40;;;;;;;14.33;100.00;101054.72;5100528;28;20228;-83
2023/09/02 04:34:20;;;;;;;2.93;2.73;;;;;;;14.34;100.00;101059.94;5099481;28;20210;-82
2023/09/02 04:36:46;;;;;;;3.43;2.83;;;;;;;14.36;100.00;101062.50;5098632;28;20215;-82
2023/09/02 04:39:13;;;;;;;2.80;2.60;;;;;;;14.36;100.00;101063.38;5099081;28;20255;-82
2023/09/02 04:41:40;;;;;;;4.07;2.83;;;;;;;14.38;100.00;101073.97;5099090;28;20231;-83
2023/09/02 04:44:09;;;;;;;3.30;2.70;;;;;;;14.38;100.00;101080.19;5097946;28;20230;-83
2023/09/02 04:46:36;;;;;;;3.30;2.93;;;;;;;14.39;100.00;101083.72;5093248;28;20217;-83
2023/09/02 04:49:04;;;;;;;3.83;3.50;;;;;;;14.40;100.00;101080.97;5088012;28;20242;-83
2023/09/02 04:51:30;;;;;;;5.23;3.23;;;;;;;14.42;100.00;101092.44;5097865;28;20269;-82
2023/09/02 04:53:57;;;;;;;3.40;3.03;;;;;;;14.45;100.00;101088.69;5097462;28;20224;-83
2023/09/02 04:56:23;;;;;;;4.23;2.80;;;;;;;14.43;100.00;101102.19;5098922;28;20206;-84
2023/09/02 04:58:50;;;;;;;3.33;3.03;;;;;;;14.44;100.00;101095.88;5098230;28;20200;-83
2023/09/02 05:01:18;;;;;;;4.77;3.30;;;;;;;14.44;100.00;101103.91;5097990;28;20201;-84
2023/09/02 05:03:45;;;;;;;3.87;3.40;;;;;;;14.46;100.00;101107.34;5097255;28;20224;-83
2023/09/02 05:06:16;;;;;;;3.70;3.40;;;;;;;14.47;100.00;101111.72;5097870;28;20679;-82
2023/09/02 05:08:43;;;;;;;4.77;4.00;;;;;;;14.50;100.00;101113.34;5097356;28;20200;-83
2023/09/02 05:11:09;;;;;;;4.37;3.23;;;;;;;14.51;100.00;101110.53;5097911;28;20229;-83
2023/09/02 05:13:36;;;;;;;5.13;3.40;;;;;;;14.52;100.00;101119.41;5097158;28;20240;-83
2023/09/02 05:16:02;;;;;;;3.93;3.43;;;;;;;14.52;100.00;101104.19;5095676;28;20246;-84
2023/09/02 05:18:29;;;;;;;3.47;3.17;;;;;;;14.54;100.00;101118.34;5097165;28;20198;-83
2023/09/02 05:20:56;;;;;;;3.63;3.30;;;;;;;14.56;100.00;101113.72;5096306;28;20202;-83
2023/09/02 05:23:24;;;;;;;6.70;3.30;;;;;;;14.61;100.00;101115.22;5096316;28;20213;-84
2023/09/02 05:25:55;;;;;;;3.93;3.40;;;;;;;14.62;100.00;101119.63;5092416;28;20199;-85
2023/09/02 05:28:22;;;;;;;4.30;4.00;;;;;;;14.65;100.00;101114.91;5076176;28;20209;-84
2023/09/02 05:30:50;;;;;;;3.93;3.63;;;;;;;14.69;100.00;101126.28;5077559;28;20581;-83
2023/09/02 05:33:17;;;;;;;4.47;4.07;;;;;;;14.72;100.00;101124.19;5076560;28;20256;-83
2023/09/02 05:35:44;;;;;;;4.63;4.23;;;;;;;14.75;100.00;101128.47;5076935;28;20223;-84
2023/09/02 05:38:10;;;;;;;5.27;4.27;;;;;;;14.76;100.00;101130.19;5090565;28;20205;-84
2023/09/02 05:40:41;;;;;;;5.23;4.53;;;;;;;14.75;100.00;101121.28;5097050;28;20221;-84
2023/09/02 05:43:08;;;;;;;4.53;4.07;;;;;;;14.78;100.00;101122.91;5097375;28;20239;-83
2023/09/02 05:45:35;;;;;;;4.20;3.83;;;;;;;14.78;100.00;101122.91;5097364;28;20263;-84
2023/09/02 05:48:01;;;;;;;4.27;3.87;;;;;;;14.81;100.00;101128.91;5096436;28;20207;-83
2023/09/02 05:50:28;;;;;;;4.50;4.10;;;;;;;14.83;100.00;101126.09;5096052;28;20226;-83
2023/09/02 05:52:54;;;;;;;5.20;4.70;;;;;;;14.87;100.00;101127.56;5095115;28;20225;-85
2023/09/02 05:55:21;;;;;;;4.57;4.10;;;;;;;14.92;100.00;101128.94;5096128;28;20205;-86
2023/09/02 05:57:49;;;;;;;4.80;4.30;;;;;;;14.98;100.00;101121.44;5095497;28;20216;-85
2023/09/02 06:00:15;;;;;;;5.63;4.73;;;;;;;15.03;100.00;101130.84;5095474;28;20228;-83
2023/09/02 06:02:42;;;;;;;5.27;4.77;;;;;;;15.09;100.00;101143.78;5096046;28;20202;-84
2023/09/02 06:05:09;;;;;;;4.93;4.53;;;;;;;15.12;100.00;101138.22;5094576;28;20209;-83
2023/09/02 06:07:35;;;;;;;5.20;4.80;;;;;;;15.14;100.00;101138.94;5095558;28;20208;-84
2023/09/02 06:10:01;;;;;;;5.67;5.07;;;;;;;15.18;100.00;101142.28;5094219;28;20731;-86
2023/09/02 06:12:28;;;;;;;5.43;4.87;;;;;;;15.21;100.00;101142.91;5094084;28;20228;-82
2023/09/02 06:14:56;;;;;;;5.53;4.97;;;;;;;15.25;100.00;101146.19;5095630;28;20219;-83
2023/09/02 06:17:22;;;;;;;5.30;4.80;;;;;;;15.28;100.00;101154.00;5094149;28;20209;-82
2023/09/02 06:19:49;;;;;;;5.77;5.10;;;;;;;15.36;100.00;101158.81;5094760;28;20226;-84
2023/09/02 06:22:15;;;;;;;5.93;5.17;;;;;;;15.44;100.00;101148.34;5093821;28;20215;-83
2023/09/02 06:24:42;;;;;;;6.63;5.57;;;;;;;15.54;100.00;101149.38;5094076;28;20214;-83
2023/09/02 06:27:08;;;;;;;5.93;5.43;;;;;;;15.61;100.00;101150.63;5091539;28;20215;-83
2023/09/02 06:29:36;;;;;;;5.77;5.27;;;;;;;15.67;100.00;101157.38;5093731;28;20226;-83
2023/09/02 06:32:05;;;;;;;6.37;5.67;;;;;;;15.73;100.00;101160.44;5095997;28;20199;-84
2023/09/02 06:34:31;;;;;;;5.53;5.03;;;;;;;15.81;100.00;101162.53;5094795;28;20717;-82
2023/09/02 06:36:58;;;;;;;5.83;5.30;;;;;;;15.87;100.00;101162.94;5095847;28;20773;-82
2023/09/02 06:39:24;;;;;;;6.43;5.83;;;;;;;15.93;100.00;101162.47;5094959;28;21008;-83
2023/09/02 06:41:51;;;;;;;6.87;6.17;;;;;;;16.00;100.00;101165.50;5090492;28;20647;-84
2023/09/02 06:44:17;;;;;;;6.80;5.90;;;;;;;16.05;100.00;101162.47;5094607;28;20198;-84
2023/09/02 06:46:43;;;;;;;6.40;5.80;;;;;;;16.09;100.00;101155.88;5093679;28;20237;-82
2023/09/02 06:49:11;;;;;;;7.00;5.50;;;;;;;16.14;100.00;101154.53;5094149;28;20231;-83
2023/09/02 06:51:38;;;;;;;5.73;5.03;;;;;;;16.19;100.00;101151.50;5094636;28;20213;-83
2023/09/02 06:54:04;;;;;;;7.07;6.03;;;;;;;16.22;100.00;101154.78;5094129;28;20250;-83
2023/09/02 06:56:31;;;;;;;7.13;6.03;;;;;;;16.29;100.00;101163.25;5094687;28;20652;-84
2023/09/02 06:58:57;;;;;;;7.07;6.37;;;;;;;16.36;100.00;101160.91;5095232;28;20712;-83
2023/09/02 07:01:24;;;;;;;8.83;6.43;;;;;;;16.43;100.00;101170.19;5094747;28;20576;-84
2023/09/02 07:03:51;;;;;;;8.20;6.63;;;;;;;16.47;100.00;101167.16;5090733;28;20238;-83
2023/09/02 07:06:19;;;;;;;7.97;6.57;;;;;;;16.53;100.00;101166.66;5096772;28;20212;-83
2023/09/02 07:08:46;;;;;;;7.50;6.67;;;;;;;16.58;100.00;101164.44;5095474;28;20211;-83
2023/09/02 07:11:13;;;;;;;8.33;7.27;;;;;;;16.64;100.00;101163.16;5094203;28;20203;-83
2023/09/02 07:13:42;;;;;;;7.87;6.10;;;;;;;16.68;100.00;101156.53;5094611;28;20238;-81
2023/09/02 07:16:09;;;;;;;9.40;7.20;;;;;;;16.73;100.00;101157.00;5095660;28;20248;-83
2023/09/02 07:18:36;;;;;;;7.50;6.70;;;;;;;16.84;100.00;101158.84;5099403;28;20201;-83
2023/09/02 07:21:04;;;;;;;8.23;6.53;;;;;;;16.92;100.00;101164.44;5099818;28;20233;-82
2023/09/02 07:23:33;;;;;;;7.40;6.53;;;;;;;17.05;100.00;101166.97;5100022;28;20208;-85
2023/09/02 07:26:01;;;;;;;10.03;6.60;;;;;;;17.17;100.00;101177.59;5099834;28;20239;-84
2023/09/02 07:28:27;;;;;;;9.87;6.40;;;;;;;17.30;100.00;101186.38;5100047;28;20202;-84
2023/09/02 07:30:54;;;;;;;9.03;7.07;;;;;;;17.44;100.00;101192.44;5101456;28;20236;-82
2023/09/02 07:33:21;;;;;;;7.67;6.57;;;;;;;17.55;100.00;101192.41;5091969;28;20229;-84
2023/09/02 07:35:47;;;;;;;8.77;7.00;;;;;;;17.64;100.00;101186.25;5101467;28;20573;-84
2023/09/02 07:38:15;;;;;;;7.53;6.70;;;;;;;17.72;100.00;101186.47;5100739;28;20401;-83
2023/09/02 07:40:43;;;;;;;9.03;6.70;;;;;;;17.79;100.00;101186.78;5100463;28;20225;-83
2023/09/02 07:43:09;;;;;;;8.10;6.63;;;;;;;17.91;100.00;101201.94;5100196;28;20198;-81
2023/09/02 07:45:36;;;;;;;6.77;5.90;;;;;;;18.02;100.00;101208.09;5082680;28;20809;-84
2023/09/02 07:48:02;;;;;;;9.03;6.90;;;;;;;18.18;100.00;101210.34;5100793;28;20206;-82
2023/09/02 07:50:29;;;;;;;7.40;6.30;;;;;;;18.29;100.00;101217.47;5100277;28;20280;-82
2023/09/02 07:52:55;;;;;;;6.63;5.67;;;;;;;18.40;100.00;101217.44;5101996;28;20223;-83
2023/09/02 07:55:23;;;;;;;6.67;5.90;;;;;;;18.45;100.00;101206.25;5100452;28;20201;-82
2023/09/02 07:57:51;;;;;;;7.90;6.70;;;;;;;18.48;97.51;101204.09;5100538;28;20205;-83
2023/09/02 08:00:17;;;;;;;7.03;6.30;;;;;;;18.55;96.87;101210.69;5099770;28;20227;-83
2023/09/02 08:02:44;;;;;;;7.07;6.33;;;;;;;18.69;96.28;101210.34;5093572;28;20218;-83
2023/09/02 08:05:10;;;;;;;7.13;6.43;;;;;;;18.78;94.58;101216.78;5086479;28;20211;-82
2023/09/02 08:07:37;;;;;;;6.97;6.37;;;;;;;18.84;93.70;101220.75;5099561;28;20655;-84
2023/09/02 08:10:04;;;;;;;7.90;7.10;;;;;;;18.88;92.15;101228.47;5098163;28;20232;-83
2023/09/02 08:12:30;;;;;;;6.33;5.70;;;;;;;18.93;91.56;101219.97;5098710;28;20226;-85
2023/09/02 08:14:58;;;;;;;7.83;7.03;;;;;;;18.99;90.67;101230.19;5097197;28;20220;-83
2023/09/02 08:17:25;;;;;;;6.40;5.80;;;;;;;19.05;90.45;101229.66;5098163;28;20236;-84
2023/09/02 08:19:52;;;;;;;6.93;6.23;;;;;;;19.11;89.29;101228.25;5090096;28;20224;-82
2023/09/02 08:22:18;;;;;;;7.70;7.00;;;;;;;19.18;88.85;101235.66;5099038;28;20199;-82
2023/09/02 08:24:45;;;;;;;6.83;6.13;;;;;;;19.25;89.11;101238.66;5096144;28;20229;-86
2023/09/02 08:27:11;;;;;;;5.37;4.87;;;;;;;19.29;88.31;101243.66;5083061;28;20201;-82
2023/09/02 08:29:37;;;;;;;5.80;5.20;;;;;;;19.32;87.30;101251.47;5096506;28;20224;-83
2023/09/02 08:32:05;;;;;;;6.07;5.57;;;;;;;19.35;85.98;101253.88;5083457;28;20195;-84
2023/09/02 08:34:32;;;;;;;7.63;6.90;;;;;;;19.36;86.06;101249.31;5097400;28;20234;-83
2023/09/02 08:36:58;;;;;;;7.60;6.87;;;;;;;19.39;85.88;101257.16;5097672;28;20195;-83
2023/09/02 08:39:25;;;;;;;8.07;6.10;;;;;;;19.42;85.79;101259.59;5097652;28;20233;-83
2023/09/02 08:41:52;;;;;;;7.53;5.93;;;;;;;19.46;85.95;101255.63;5096346;28;20210;-83
2023/09/02 08:44:20;;;;;;;6.20;5.60;;;;;;;19.51;86.09;101250.69;5083788;28;20278;-85
2023/09/02 08:46:47;;;;;;;5.33;4.83;;;;;;;19.61;86.04;101259.66;5085092;28;20223;-82
2023/09/02 08:49:17;;;;;;;5.70;5.20;;;;;;;19.71;85.93;101257.78;5096151;28;20227;-84
2023/09/02 08:51:44;;;;;;;5.83;5.30;;;;;;;19.84;84.84;101272.91;5096893;28;20259;-85
2023/09/02 08:54:11;;;;;;;5.38;4.85;;;;;;;19.95;83.34;101275.47;5095085;28;20227;-85
2023/09/02 08:56:41;;;;;;;5.30;4.50;;;;;;;20.02;82.68;101280.16;5093810;28;20283;-83
2023/09/02 08:59:09;;;;;;;5.97;5.38;;;;;;;20.13;81.78;101278.28;5092799;28;20221;-82
2023/09/02 09:01:37;;;;;;;5.93;5.33;;;;;;;20.25;81.52;101277.13;5077405;28;20216;-83
2023/09/02 09:04:04;;;;;;;6.82;5.20;;;;;;;20.34;81.46;101279.00;5096401;28;20199;-83
2023/09/02 09:06:36;;;;;;;6.78;6.07;;;;;;;20.46;80.00;101275.13;5101098;28;20211;-83
2023/09/02 09:09:03;;;;;;;6.15;5.20;;;;;;;20.47;79.17;101284.09;5095042;28;20216;-83
2023/09/02 09:11:33;;;;;;;6.00;5.18;;;;;;;20.46;79.29;101288.66;5093760;28;20693;-82
2023/09/02 09:14:02;;;;;;;6.28;5.40;;;;;;;20.45;80.00;101279.69;5090826;28;20217;-82
2023/09/02 09:16:35;;;;;;;5.13;4.63;;;;;;;20.48;79.76;101285.81;5095041;28;20204;-82
2023/09/02 09:19:02;;;;;;;4.38;3.97;;;;;;;20.58;79.99;101292.09;5094480;28;20303;-82
2023/09/02 09:21:28;;;;;;;4.50;4.10;;;;;;;20.61;78.61;101287.19;5091906;28;20233;-82
2023/09/02 09:23:56;;;;;;;4.70;4.30;;;;;;;20.65;78.39;101294.03;5088643;28;20199;-82
2023/09/02 09:26:25;;;;;;;5.18;4.20;;;;;;;20.70;78.54;101285.47;5094525;28;20204;-82
2023/09/02 09:28:53;;;;;;;5.38;3.83;;;;;;;20.78;78.54;101288.31;5094288;28;20200;-82
2023/09/02 09:31:20;;;;;;;4.38;3.97;;;;;;;20.79;77.20;101290.84;5092284;28;20196;-83
2023/09/02 09:33:53;;;;;;;4.65;3.88;;;;;;;20.82;76.29;101297.84;5095873;28;20602;-83
2023/09/02 09:36:21;;;;;;;4.93;4.30;;;;;;;20.86;76.38;101304.66;5094563;28;20678;-82
2023/09/02 09:38:48;;;;;;;5.07;4.57;;;;;;;20.92;75.99;101301.38;5095500;28;20276;-83
2023/09/02 09:41:16;;;;;;;4.85;4.43;;;;;;;20.97;75.61;101304.47;5094869;28;20203;-82
2023/09/02 09:43:42;;;;;;;4.93;4.38;;;;;;;21.03;75.43;101308.44;5093055;28;20211;-85
2023/09/02 09:46:13;;;;;;;5.05;4.55;;;;;;;21.05;75.49;101303.75;5091888;28;20200;-85
2023/09/02 09:48:46;;;;;;;5.70;5.20;;;;;;;21.08;75.02;101300.75;5092583;28;20211;-84
2023/09/02 09:51:21;;;;;;;6.20;4.82;;;;;;;21.12;75.74;101300.31;5087224;28;20719;-83
2023/09/02 09:53:48;;;;;;;5.93;5.40;;;;;;;21.18;75.71;101306.94;5089907;28;20752;-83
2023/09/02 09:56:20;;;;;;;5.38;4.78;;;;;;;21.19;75.75;101307.81;5092758;28;20679;-84
2023/09/02 09:58:47;;;;;;;5.15;4.65;;;;;;;21.25;75.42;101309.97;5086842;28;20200;-83
2023/09/02 10:01:21;;;;;;;3.80;3.50;;;;;;;21.24;75.06;101317.22;5082854;28;20636;-82
2023/09/02 10:03:49;;;;;;;4.30;3.90;;;;;;;21.24;75.11;101316.38;5086229;28;20204;-82
2023/09/02 10:06:15;;;;;;;5.30;4.80;;;;;;;21.26;75.29;101317.09;5088747;28;20226;-82
2023/09/02 10:08:53;;;;;;;4.88;4.47;;;;;;;21.24;75.28;101310.97;5090441;28;20205;-83
2023/09/02 10:11:23;;;;;;;5.30;4.80;;;;;;;21.23;75.61;101318.22;5082952;28;20210;-83
2023/09/02 10:13:53;;;;;;;4.82;4.35;;;;;;;21.29;74.88;101323.06;5089503;28;20225;-82
2023/09/02 10:16:22;;;;;;;5.18;4.68;;;;;;;21.27;75.03;101322.34;5091506;28;20208;-84
2023/09/02 10:18:51;;;;;;;4.55;4.15;;;;;;;21.27;75.69;101327.78;5092351;28;20203;-83
2023/09/02 10:21:19;;;;;;;4.97;4.57;;;;;;;21.30;75.08;101316.66;5085244;28;20200;-82
2023/09/02 10:23:50;;;;;;;5.70;5.20;;;;;;;21.35;74.53;101311.59;5084575;28;20238;-83
2023/09/02 10:26:28;;;;;;;5.03;4.53;;;;;;;21.40;73.54;101320.13;5090288;28;20199;-82
2023/09/02 10:29:01;;;;;;;5.05;4.32;;;;;;;21.49;73.89;101318.41;5085112;28;20196;-83
2023/09/02 10:31:41;;;;;;;4.78;4.38;;;;;;;21.59;74.37;101321.03;5091765;28;20688;-83
2023/09/02 10:34:14;;;;;;;4.55;4.15;;;;;;;21.69;73.39;101322.66;5093235;28;20222;-83
2023/09/02 10:36:45;;;;;;;5.70;5.10;;;;;;;21.77;72.84;101320.06;5094569;28;20222;-82
2023/09/02 10:39:20;;;;;;;6.55;6.00;;;;;;;21.86;71.92;101325.53;5093847;28;20619;-82
2023/09/02 10:41:50;;;;;;;6.82;6.22;;;;;;;21.92;70.59;101323.09;5085215;28;20308;-83
2023/09/02 10:44:18;;;;;;;6.57;5.97;;;;;;;21.97;70.89;101331.63;5091649;28;20266;-83
2023/09/02 10:46:46;;;;;;;6.97;6.38;;;;;;;22.04;69.80;101318.31;5086549;28;20578;-82
2023/09/02 10:49:13;;;;;;;7.10;6.50;;;;;;;22.09;69.45;101314.13;5091765;28;20230;-82
2023/09/02 10:51:42;;;;;;;6.70;6.10;;;;;;;22.17;68.07;101322.34;5093774;28;20671;-83
2023/09/02 10:54:08;;;;;;;6.25;5.65;;;;;;;22.23;68.06;101317.28;5090951;28;20220;-82
2023/09/02 10:56:36;;;;;;;6.03;5.53;;;;;;;22.26;67.05;101314.25;5096576;28;20214;-84
2023/09/02 10:59:05;;;;;;;6.45;5.85;;;;;;;22.27;67.15;101318.69;5097948;28;20687;-84
2023/09/02 11:01:55;;;;;;;6.05;5.55;;;;;;;22.34;67.41;101320.63;5096013;28;20212;-84
2023/09/02 11:04:56;;;;;;;5.13;4.63;;;;;;;22.44;65.82;101318.66;5101419;28;20200;-84
2023/09/02 11:07:26;;;;;;;4.45;4.05;;;;;;;22.47;64.72;101325.66;5087596;28;20809;-83
2023/09/02 11:09:54;;;;;;;4.20;2.53;;;;;;;22.53;64.18;101330.44;5092272;28;20235;-82
2023/09/02 11:12:20;;;;;;;2.20;2.00;;;;;;;22.60;63.31;101320.63;5087588;28;20211;-83
2023/09/02 11:15:16;;;;;;;1.63;1.52;;;;;;;22.65;63.07;101323.75;5093238;28;20232;-84
2023/09/02 11:17:43;;;;;;;1.30;1.08;;;;;;;22.71;62.00;101324.97;5090064;28;20214;-82
2023/09/02 11:20:11;;;;;;;1.80;1.70;;;;;;;22.73;62.40;101323.81;5090372;28;20236;-82
2023/09/02 11:22:55;;;;;;;3.42;3.20;;;;;;;22.79;64.54;101325.91;5094124;28;20205;-84